Località Giorno Ora Temp. Umid. Relat. Dew Point Press. Atm. Velocità Vento Direz. Vento Precip. Temp.
Min
Temp.
Max
Abano (PD) 28/02/17 03.55 8.9 °C 92 % 7.7 °C 1008.9 hPa 0.0 Km/h NNE 0.0 mm  8.9 °C 9.3 °C
Acquapendente (VT) 25/02/17 21.52 4.9 °C 66 % -0.9 °C 1011.0 hPa 0.0 Km/h WSW 3.9 mm  4.9 °C 10.6 °C
Acquaviva delle Fonti (BA) 28/02/17 03.53 7.6 °C 92 % 6.3 °C 1014.4 hPa 0.2 Km/h SE 0.0 mm  7.6 °C 9.9 °C
Ala (TN) 28/02/17 03.53 8.3 °C 83 % 5.6 °C 1008.0 hPa 3.2 Km/h SE 0.2 mm  8.1 °C 9.6 °C
Alleghe (BL) 28/02/17 03.53 0.4 °C 78 % -3.0 °C 994.4 hPa 0.0 Km/h NE 0.0 mm  0.4 °C 1.0 °C
Alleghe Lago (BL) 28/02/17 03.54 1.2 °C 77 % -2.4 °C 999.9 hPa 1.1 Km/h ENE 0.0 mm  0.9 °C 1.9 °C
Ancona (AN) 28/02/17 03.55 5.8 °C 93 % 4.7 °C 1013.4 hPa 0.0 Km/h --- 0.3 mm  5.5 °C 6.7 °C
Arenzano (GE) 28/02/17 03.53 11.6 °C 92 % 10.3 °C 1009.5 hPa 14.5 Km/h S 3.4 mm  10.8 °C 11.7 °C
Arquà Polesine (RO) 28/02/17 03.53 7.4 °C 88 % 5.5 °C 1003.3 hPa 0.0 Km/h N 0.0 mm  7.3 °C 8.4 °C
Arzignano loc. Castello (VI) 27/02/17 22.45 8.6 °C 74 % 4.2 °C 1013.4 hPa 0.0 Km/h NE 0.0 mm  4.8 °C 13.1 °C
Arzignano Pugnello (VI) 28/02/17 03.54 5.9 °C 84 % 3.3 °C 1008.4 hPa 0.0 Km/h NNE 0.0 mm  5.9 °C 7.6 °C
Arzignano Tezze (VI) 28/02/17 03.43 7.4 °C 87 % 5.4 °C 1010.0 hPa 0.0 Km/h N 0.0 mm  6.9 °C 8.1 °C
Asiago Rifugio Val Formica (VI) 28/02/17 03.44 -0.6 °C 97 % -1.0 °C 1009.0 hPa 0.0 Km/h E 0.3 mm  -1.3 °C -0.5 °C
Avenza-Carrara (MS) 28/02/17 03.45 11.1 °C 80 % 7.8 °C 1013.7 hPa 0.0 Km/h N 0.0 mm  11.1 °C 11.4 °C
Avio (TN) 28/02/17 03.53 8.6 °C 86 % 6.4 °C 1008.2 hPa 0.0 Km/h NNE 0.5 mm  8.6 °C 9.8 °C
Badia Calavena loc. San Valentino (VR) 28/02/17 03.53 4.8 °C 87 % 2.9 °C 1007.3 hPa 8.0 Km/h SW 0.2 mm  4.5 °C 5.3 °C
Barcellona P.G. Centro (ME) 28/02/17 03.53 10.9 °C 87 % 8.8 °C 1017.0 hPa 6.4 Km/h SE 0.0 mm  10.9 °C 11.7 °C
Barcellona Pozzo di Gotto (ME) 28/02/17 03.53 12.1 °C 86 % 9.8 °C 1017.2 hPa 0.0 Km/h S 0.0 mm  11.7 °C 12.8 °C
Bassano del Grappa (VI) 27/02/17 21.40 7.5 °C 68 % 2.0 °C 1000.7 hPa 0.0 Km/h --- 0.0 mm  4.6 °C 14.4 °C
Bellaria Igea Marina (RN) 28/02/17 03.53 9.9 °C 71 % 4.9 °C 1010.6 hPa 8.0 Km/h S 0.0 mm  5.3 °C 9.9 °C
Bellaria Igea Marina2 (RN) 28/02/17 03.53 9.9 °C 74 % 5.5 °C 1010.5 hPa 4.8 Km/h S 0.0 mm  5.4 °C 9.9 °C
Bellaria Igea Marina3 (RN) 28/02/17 03.53 9.3 °C 77 % 5.5 °C 1009.8 hPa 4.0 Km/h SE 0.0 mm  4.2 °C 9.7 °C
Belluno Castion (BL) 28/02/17 03.45 3.9 °C 79 % 0.6 °C 1009.4 hPa 0.0 Km/h --- 0.0 mm  3.8 °C 4.4 °C
Besenello (TN) 28/02/17 03.54 7.2 °C 84 % 4.6 °C 1009.0 hPa 8.7 Km/h NE 0.6 mm  7.1 °C 9.1 °C
Besozzo (VA) 27/02/17 21.48 7.8 °C 63 % 1.2 °C 1012.5 hPa 1.6 Km/h SE 0.0 mm  0.4 °C 13.1 °C
Biasì (OT) 28/02/17 03.54 6.3 °C 78 % 2.7 °C 1013.5 hPa 0.0 Km/h S 0.0 mm  4.2 °C 7.4 °C
Bisignano (CS) 28/02/17 03.53 11.0 °C 78 % 7.3 °C 1015.9 hPa 2.2 Km/h N 0.0 mm  10.7 °C 13.3 °C
Bitti (NU) 28/02/17 03.53 4.2 °C 83 % 1.6 °C 1014.2 hPa 0.0 Km/h SSW 0.0 mm  4.2 °C 6.4 °C
Bolognano di Arco (TN) 28/02/17 03.53 6.7 °C 91 % 5.3 °C 1010.6 hPa 0.0 Km/h SW 0.4 mm  6.7 °C 8.1 °C
Bonorva (SS) 28/02/17 03.50 9.4 °C 83 % 6.7 °C 1014.1 hPa 11.3 Km/h S 0.0 mm  7.8 °C 9.4 °C
Borgo Valsugana (TN) 28/02/17 03.43 5.6 °C 62 % -1.1 °C 1010.7 hPa 1.4 Km/h SSE 0.0 mm  5.6 °C 6.0 °C
Borgofranco d'Ivrea (TO) 28/02/17 03.54 6.2 °C 80 % 3.0 °C 1008.4 hPa 0.0 Km/h W 0.0 mm  6.2 °C 7.0 °C
Borore (NU) 28/02/17 03.54 6.7 °C 91 % 5.4 °C 1014.6 hPa 0.0 Km/h SW 0.0 mm  5.3 °C 6.8 °C
Brebbia (VA) 28/02/17 00.00 6.9 °C 85 % 4.6 °C 1012.9 hPa 1.6 Km/h SSE 0.0 mm  6.9 °C 6.9 °C
Bresega (PD) 28/02/17 03.53 0.0 °C 0 % 0.0 °C 1009.5 hPa 2.0 Km/h ENE 0.0 mm  0.0 °C 0.0 °C
Brolo c/da Parrazzà (ME) 28/02/17 03.55 12.2 °C 84 % 9.5 °C 1017.1 hPa 10.0 Km/h SSE 0.0 mm  11.7 °C 12.6 °C
Brugine2 (PD) 28/02/17 03.51 7.8 °C 92 % 6.6 °C 1010.4 hPa 0.0 Km/h NNE 0.0 mm  7.6 °C 7.8 °C
Buccheri (SR) 28/02/17 03.27 6.6 °C 68 % 1.1 °C 1013.0 hPa 0.0 Km/h S 0.0 mm  6.4 °C 8.2 °C
Budoia (PN) 28/02/17 03.45 6.4 °C 80 % 3.2 °C 1010.8 hPa 0.0 Km/h N 0.0 mm  6.3 °C 6.6 °C
Ca' Gallo (PU) 28/02/17 03.45 9.6 °C 78 % 5.9 °C 1013.1 hPa 5.8 Km/h SW 0.0 mm  5.4 °C 9.7 °C
Calcinato (BS) 28/02/17 03.53 7.5 °C 79 % 4.1 °C 1011.8 hPa 4.8 Km/h ESE 0.0 mm  7.4 °C 8.2 °C
Calliano (TN) 28/02/17 03.53 6.3 °C 89 % 4.6 °C 1008.3 hPa 8.0 Km/h S 0.6 mm  6.3 °C 8.4 °C
Caltabellotta (AG) 28/02/17 03.50 8.7 °C 96 % 8.1 °C 1016.8 hPa 5.0 Km/h N 0.0 mm  8.7 °C 9.7 °C
Cammarata (AG) 28/02/17 03.53 8.5 °C 61 % 1.4 °C 1019.0 hPa 3.6 Km/h NW 0.0 mm  8.4 °C 9.5 °C
Campoformido (UD) 28/02/17 03.53 6.4 °C 82 % 3.6 °C 1010.6 hPa 0.0 Km/h ENE 0.0 mm  6.4 °C 7.4 °C
Camposampiero (PD) 28/02/17 03.53 8.0 °C 48 % -2.4 °C 1010.0 hPa 3.7 Km/h N 0.0 mm  8.0 °C 8.0 °C
Capodimonte (VT) 28/02/17 03.50 7.4 °C 92 % 6.2 °C 1016.0 hPa 0.0 Km/h N 0.0 mm  7.4 °C 8.7 °C
Caprarola Centro Storico (VT) 28/02/17 03.54 6.4 °C 100 % 6.4 °C 1014.0 hPa 0.0 Km/h S 0.0 mm  6.4 °C 7.8 °C
Caprino (VR) 28/02/17 03.53 8.1 °C 89 % 6.4 °C 1007.4 hPa 0.0 Km/h NNE 0.0 mm  7.5 °C 8.1 °C
Carceri (PD) 28/02/17 03.40 7.7 °C 91 % 6.7 °C 1009.4 hPa 3.2 Km/h E 0.0 mm  7.7 °C 8.5 °C
Carmignano loc. Seano (PO) 28/02/17 03.54 9.0 °C 82 % 6.1 °C 1012.6 hPa 0.0 Km/h SE 0.0 mm  8.9 °C 10.4 °C
Carpi (MO) 28/02/17 03.53 7.4 °C 87 % 5.4 °C 1008.7 hPa 0.0 Km/h ENE 0.0 mm  7.2 °C 9.1 °C
Cartigliano (VI) 28/02/17 03.53 7.3 °C 80 % 4.1 °C 1009.7 hPa 0.6 Km/h ENE 0.2 mm  7.3 °C 7.9 °C
Casotto (VI) 28/02/17 03.31 4.4 °C 88 % 2.8 °C 1009.0 hPa 0.0 Km/h NNE 0.3 mm  4.4 °C 5.6 °C
Cassano Magnago (VA) 28/02/17 03.44 6.1 °C 95 % 5.4 °C 1008.0 hPa 0.0 Km/h ESE 0.8 mm  5.6 °C 6.1 °C
Castel d'Azzano (VR) 27/02/17 22.45 9.4 °C 66 % 3.4 °C 844.6 hPa 0.0 Km/h --- 0.0 mm  3.5 °C 13.6 °C
Castelfranco Veneto (TV) 27/02/17 13.35 12.7 °C 53 % 3.3 °C 1015.6 hPa 0.0 Km/h ESE 0.0 mm  2.2 °C 12.9 °C
Castelfranco Veneto2 (TV) 28/02/17 03.29 7.5 °C 85 % 5.1 °C 1012.1 hPa 0.0 Km/h ENE 0.0 mm  7.5 °C 8.4 °C
Castelgomberto (VI) 28/02/17 03.54 7.4 °C 83 % 4.7 °C 1009.4 hPa 0.7 Km/h NNE 0.0 mm  7.4 °C 8.7 °C
Castelnuovo V.C. (PI) 28/02/17 03.51 7.0 °C 94 % 6.1 °C 1011.7 hPa 8.3 Km/h SSW 0.0 mm  6.3 °C 7.1 °C
Castiglione del Lago (PG) 28/02/17 03.50 7.3 °C 79 % 3.9 °C 1016.5 hPa 0.0 Km/h SSE 0.0 mm  6.7 °C 8.6 °C
Castiglione della Pescaia (GR) 28/02/17 03.53 11.4 °C 81 % 8.3 °C 1016.9 hPa 15.8 Km/h SSE 0.0 mm  7.2 °C 11.4 °C
Castiglione della Pescaia Vaticino (GR) 28/02/17 03.51 8.0 °C 1 % -45.1 °C 1012.9 hPa 0.0 Km/h WSW 0.0 mm  7.3 °C 8.9 °C
Cavaria con Premezzo (VA) 28/02/17 03.53 6.1 °C 95 % 5.6 °C 1007.7 hPa 0.0 Km/h ESE 0.6 mm  5.7 °C 6.2 °C
Cavazzale (VI) 27/02/17 21.25 9.8 °C 70 % 4.6 °C 1013.9 hPa 3.2 Km/h NE 0.0 mm  3.2 °C 13.7 °C
Cefalù (PA) 28/02/17 03.54 12.9 °C 81 % 9.7 °C 1013.9 hPa 4.3 Km/h SSW 0.0 mm  11.6 °C 13.1 °C
Cerea (VR) 27/02/17 23.15 8.9 °C 69 % 3.5 °C 1013.2 hPa 3.2 Km/h NE 0.0 mm  1.9 °C 15.5 °C
Chioggia (VE) 28/02/17 03.10 8.8 °C 0 % -33.6 °C 1010.8 hPa 0.0 Km/h N 0.0 mm * 8.7 °C 8.9 °C
Chiusi (SI) 28/02/17 03.45 6.5 °C 91 % 5.1 °C 1012.8 hPa 1.6 Km/h NNE 0.0 mm  6.4 °C 7.6 °C
Cima Grappa (TV) 28/02/17 03.54 -1.2 °C 98 % -1.5 °C 1011.6 hPa 14.1 Km/h W 0.6 mm  -2.0 °C -1.1 °C
Cismon del Grappa loc. Corlo (VI) 28/02/17 03.54 4.5 °C 84 % 2.0 °C 1011.1 hPa 2.2 Km/h NNE 0.8 mm  4.5 °C 5.3 °C
Cittadella (PD) 28/02/17 03.41 7.8 °C 78 % 4.2 °C 1009.7 hPa 5.6 Km/h SE 0.0 mm  7.8 °C 8.6 °C
Civita Castellana (VT) 28/02/17 03.54 3.3 °C 87 % 1.3 °C 1016.1 hPa 1.7 Km/h S 0.0 mm  3.3 °C 5.0 °C
Cogollo del Cengio (VI) 28/02/17 03.49 5.4 °C 99 % 5.3 °C 1008.9 hPa 6.4 Km/h NE 0.0 mm  5.4 °C 6.3 °C
Colle del Piccolo San Bernardo La Thuile (AO) 28/02/17 03.40 -5.9 °C 93 % -6.7 °C 1006.7 hPa 1.6 Km/h NNE 0.0 mm  -5.9 °C -5.7 °C
Colle S. Lucia Posalz (BL) 28/02/17 03.54 -0.5 °C 71 % -5.1 °C 1014.7 hPa 0.0 Km/h SSW 0.0 mm  -0.6 °C 0.1 °C
Cologna Veneta Sant'Andrea (VR) 28/02/17 03.55 7.9 °C 89 % 6.2 °C 1008.0 hPa 1.6 Km/h ENE 0.0 mm  7.8 °C 8.5 °C
Colognola ai Colli (VR) 28/02/17 03.50 8.1 °C 81 % 5.0 °C 1010.3 hPa 0.0 Km/h NNE 0.0 mm  8.1 °C 8.7 °C
Contrada Dosso Gervasio (VR) 28/02/17 03.45 3.8 °C 93 % 2.2 °C 1008.5 hPa 2.0 Km/h SSE 0.2 mm  3.7 °C 4.2 °C
Corrubio di S. Anna d'Alfaedo (VR) 28/02/17 03.55 4.4 °C 93 % 3.4 °C 1010.8 hPa 0.0 Km/h --- 0.0 mm  4.3 °C 4.9 °C
Cosseria Lidora (SV) 28/02/17 03.45 9.5 °C 89 % 7.8 °C 1007.5 hPa 12.9 Km/h SE 0.0 mm  6.8 °C 9.6 °C
Costa di Vittorio Veneto (TV) 28/02/17 03.45 6.9 °C 76 % 3.0 °C 1009.7 hPa 0.0 Km/h NNE 0.0 mm  6.9 °C 7.2 °C
Crespano del Grappa (TV) 28/02/17 03.42 5.8 °C 73 % 1.3 °C 1006.7 hPa 5.6 Km/h NNE 0.0 mm  5.8 °C 7.1 °C
Dorno (PV) 28/02/17 03.53 6.6 °C 97 % 6.2 °C 1008.8 hPa 5.2 Km/h NE 1.0 mm  6.4 °C 6.7 °C
Dossobuono (VR) 28/02/17 03.54 7.8 °C 79 % 4.4 °C 1010.6 hPa 3.2 Km/h E 0.0 mm  7.8 °C 9.5 °C
Esine (BS) 28/02/17 03.53 6.1 °C 91 % 4.8 °C 1008.2 hPa 2.0 Km/h W 2.4 mm  6.1 °C 7.6 °C
Falzè di Piave (TV) 27/02/17 22.17 6.3 °C 76 % 2.4 °C 1014.9 hPa 0.0 Km/h --- 0.0 mm  0.1 °C 13.7 °C
Farra di Soligo (TV) 28/02/17 03.53 6.9 °C 77 % 3.1 °C 1009.0 hPa 0.0 Km/h N 0.0 mm  6.9 °C 7.6 °C
Favaro Veneto (VE) 28/02/17 03.50 7.5 °C 87 % 5.5 °C 1010.8 hPa 3.2 Km/h NE 0.0 mm  7.5 °C 8.5 °C
Feltre Celarda (BL) 28/02/17 03.53 4.3 °C 77 % 0.6 °C 1008.2 hPa 0.0 Km/h NNW 0.0 mm  4.3 °C 4.7 °C
Ferrara di M.B. (VR) 28/02/17 03.20 1.4 °C 97 % 1.0 °C 1006.1 hPa 6.4 Km/h SSE 0.8 mm  0.9 °C 2.3 °C
Fiavè loc. Ballino (TN) 28/02/17 03.54 3.0 °C 82 % 0.2 °C 1012.2 hPa 2.5 Km/h NW 0.9 mm  3.0 °C 3.5 °C
Filo di Argenta (FE) 28/02/17 03.55 8.5 °C 84 % 5.9 °C 1010.3 hPa 7.0 Km/h SSW 0.0 mm  6.1 °C 8.8 °C
Fogliano Redipuglia (GO) 28/02/17 03.46 8.6 °C 96 % 8.0 °C 1011.1 hPa 2.6 Km/h ESE 0.0 mm  7.8 °C 8.7 °C
Foligno (PG) 28/02/17 03.40 7.9 °C 76 % 4.0 °C 1014.9 hPa 0.0 Km/h W 0.0 mm  5.9 °C 8.5 °C
Fontanafredda (PN) 28/02/17 03.54 6.6 °C 85 % 4.2 °C 1010.3 hPa 0.0 Km/h SE 0.0 mm  6.3 °C 6.9 °C
Gallio (VI) 28/02/17 03.40 1.9 °C 93 % 0.9 °C 1010.0 hPa 0.0 Km/h N 0.3 mm  0.9 °C 2.2 °C
Gardolo (TN) 28/02/17 03.50 7.2 °C 79 % 3.8 °C 1009.5 hPa 6.8 Km/h NE 0.0 mm  7.7 °C 8.6 °C
Genova Albaro (GE) 28/02/17 03.53 12.1 °C 85 % 9.7 °C 1013.0 hPa 13.4 Km/h S 1.3 mm  11.4 °C 12.5 °C
Genova Erzelli (GE) 28/02/17 03.57 12.0 °C 90 % 10.4 °C 1008.3 hPa 27.4 Km/h SW 1.6 mm  11.6 °C 12.4 °C
Girifalco (CZ) 28/02/17 03.54 10.8 °C 90 % 9.2 °C 1016.0 hPa 9.7 Km/h W 0.0 mm  10.6 °C 11.9 °C
Gorizia (GO) 28/02/17 03.53 7.8 °C 85 % 5.1 °C 1011.1 hPa 0.0 Km/h N 0.0 mm  7.8 °C 8.1 °C
Gradisca d'Isonzo (GO) 28/02/17 03.54 7.5 °C 88 % 5.6 °C 1007.3 hPa 0.0 Km/h NE 0.0 mm  6.8 °C 7.5 °C
Isola d'Elba Marina di Campo (LI) 28/02/17 03.30 13.2 °C 83 % 10.3 °C 1009.9 hPa 12.9 Km/h SSW 0.0 mm  10.9 °C 13.2 °C
Lavis (TN) 28/02/17 03.50 7.7 °C 78 % 3.9 °C 1008.0 hPa 14.5 Km/h SE 0.0 mm  7.7 °C 9.2 °C
Laxolo (BG) 28/02/17 03.58 4.9 °C 89 % 3.2 °C 1003.9 hPa 0.0 Km/h E 10.3 mm  2.1 °C 10.6 °C
Legnago (VR) 28/02/17 03.50 7.9 °C 92 % 6.7 °C 1009.6 hPa 1.6 Km/h ENE 0.0 mm  7.8 °C 8.7 °C
Lesmo (MB) 28/02/17 03.55 6.6 °C 91 % 5.2 °C 1008.8 hPa 4.8 Km/h ENE 3.5 mm  5.7 °C 6.7 °C
Loano (SV) 28/02/17 03.55 12.6 °C 90 % 11.0 °C 1007.3 hPa 8.0 Km/h N 0.0 mm  11.7 °C 12.6 °C
Lovere (BG) 27/02/17 22.51 9.2 °C 38 % -4.4 °C 1013.0 hPa 5.0 Km/h SW 0.0 mm  5.6 °C 13.9 °C
Lugagnano (VR) 28/02/17 03.53 7.9 °C 84 % 5.6 °C 1008.4 hPa 0.0 Km/h E 0.0 mm  7.9 °C 8.7 °C
Lusiana Sciessere (VI) 25/02/17 -5.6 0.0 °C 0 % 0.0 °C 0.0 hPa 0.0 Km/h --- 0.0 mm  0.0 °C 0.0 °C
Magnano (BI) 28/02/17 03.53 3.7 °C 92 % 2.5 °C 997.8 hPa 0.3 Km/h NW 0.0 mm  2.1 °C 4.0 °C
Malnate San Salvatore (VA) 28/02/17 03.43 5.5 °C 94 % 4.6 °C 1009.0 hPa 0.0 Km/h NW 1.3 mm  5.3 °C 5.6 °C
Marano Vicentino2 (VI) 28/02/17 03.50 7.1 °C 80 % 3.9 °C 1009.7 hPa 0.0 Km/h NW 0.0 mm  7.1 °C 7.9 °C
Margone (TN) 28/02/17 03.50 2.5 °C 94 % 1.6 °C 1010.6 hPa 3.9 Km/h SSW 0.0 mm  2.0 °C 2.5 °C
Marostica Valle San Floriano (VI) 28/02/17 03.53 6.8 °C 85 % 4.4 °C 1011.5 hPa 0.0 Km/h NW 0.0 mm  6.8 °C 7.3 °C
Martignano (TN) 28/02/17 03.55 6.0 °C 87 % 4.0 °C 1007.3 hPa 0.0 Km/h SW 0.0 mm  5.8 °C 7.1 °C
Mascalucia (CT) 28/02/17 04.01 9.4 °C 98 % 9.1 °C 1017.0 hPa 0.0 Km/h N 0.0 mm  9.4 °C 10.7 °C
Masiera di Bagnacavallo (RA) 28/02/17 03.22 10.4 °C 83 % 7.6 °C 1009.4 hPa 11.9 Km/h S 8.0 mm  0.7 °C 14.1 °C
Massone di Arco (TN) 28/02/17 03.50 6.3 °C 92 % 5.1 °C 1008.0 hPa 1.0 Km/h SSE 0.5 mm  6.3 °C 8.4 °C
Mazzurega (VR) 28/02/17 03.47 6.8 °C 84 % 4.3 °C 1010.7 hPa 1.6 Km/h N 0.3 mm  6.4 °C 7.3 °C
Merlara (PD) 28/02/17 03.55 6.9 °C 88 % 5.1 °C 1008.9 hPa 0.0 Km/h ENE 0.0 mm  6.9 °C 7.9 °C
Mezzana Bigli (PV) 28/02/17 03.50 2.4 °C 91 % 1.1 °C 1016.9 hPa 0.0 Km/h W 0.0 mm  100.0 °C -100.0 °C
Migliarino (FE) 26/02/17 23.10 5.2 °C 76 % 1.3 °C 1018.6 hPa 0.0 Km/h E 0.0 mm  2.1 °C 13.0 °C
Miglionico (MT) 28/02/17 03.50 10.0 °C 78 % 6.3 °C 1013.3 hPa 6.4 Km/h SSW 0.0 mm  9.8 °C 10.7 °C
Miola di Piné (TN) 28/02/17 03.51 1.8 °C 90 % 0.3 °C 1009.0 hPa 10.3 Km/h SW 0.2 mm  1.7 °C 3.1 °C
Mirabella Imbaccari (CT) 28/02/17 03.59 11.1 °C 96 % 10.4 °C 1016.7 hPa 0.0 Km/h ENE 0.0 mm  11.0 °C 11.2 °C
Molina (VR) 22/02/17 00.18 3.8 °C 83 % 1.2 °C 1009.7 hPa 0.0 Km/h SW 0.0 mm  3.8 °C 3.8 °C
Monasterolo Torinese (TO) 28/02/17 03.55 4.3 °C 86 % 2.1 °C 1005.3 hPa 0.0 Km/h --- 0.0 mm  4.3 °C 5.2 °C
Moneglia loc. Casale (GE) 25/02/17 07.30 8.1 °C 58 % 0.3 °C 1015.3 hPa 30.4 Km/h NE 0.2 mm  8.1 °C 10.9 °C
Moneglia loc. La Secca (GE) 28/02/17 00.05 13.6 °C 85 % 11.1 °C 1013.5 hPa 16.5 Km/h WSW 0.0 mm  13.6 °C 13.7 °C
Mongrando San Michele (BI) 28/02/17 03.55 4.4 °C 92 % 3.3 °C 1007.6 hPa 0.0 Km/h W 0.0 mm  3.9 °C 4.6 °C
Montagna in Valtellina (SO) 28/02/17 03.50 6.7 °C 82 % 3.8 °C 1008.6 hPa 4.3 Km/h W 0.0 mm  6.7 °C 8.6 °C
Montebello Vicentino loc. Selva (VI) 28/02/17 03.50 7.2 °C 62 % 0.4 °C 1010.8 hPa 16.1 Km/h NNE 0.0 mm  7.2 °C 8.3 °C
Montecchio Maggiore La Valle (VI) 28/02/17 03.44 7.4 °C 1 % -45.4 °C 1004.3 hPa 4.0 Km/h NNE 0.0 mm  7.4 °C 8.7 °C
Montecchio Maggiore Sant'Urbano (VI) 28/02/17 03.43 6.3 °C 75 % 2.1 °C 1013.8 hPa 6.4 Km/h N 0.0 mm  6.3 °C 7.2 °C
Monteforte d'Alpone (VR) 28/02/17 03.55 8.4 °C 73 % 3.9 °C 1008.1 hPa 11.3 Km/h ENE 0.0 mm  8.3 °C 8.9 °C
Montelabbate (PU) 28/02/17 03.47 8.1 °C 76 % 4.1 °C 1012.8 hPa 1.0 Km/h ENE 0.0 mm  6.2 °C 8.8 °C
Montespertoli (FI) 28/02/17 03.46 8.8 °C 80 % 5.6 °C 1013.4 hPa 6.6 Km/h NNW 0.0 mm  8.5 °C 9.0 °C
Montorso Vicentino (VI) 28/02/17 03.50 5.8 °C 84 % 3.3 °C 1009.9 hPa 0.0 Km/h N 0.0 mm  5.8 °C 7.1 °C
Muzzano (BI) 28/02/17 03.40 3.9 °C 90 % 2.4 °C 1007.4 hPa 0.0 Km/h --- 0.0 mm  3.7 °C 4.3 °C
Nichelino (TO) 28/02/17 03.55 6.0 °C 81 % 3.0 °C 1007.6 hPa 3.2 Km/h N 0.3 mm  4.7 °C 6.6 °C
Novara (NO) 28/02/17 01.50 6.3 °C 90 % 4.8 °C 1010.4 hPa 0.0 Km/h N 0.0 mm  6.2 °C 6.3 °C
Onara extraurbana (PD) 28/02/17 03.50 7.1 °C 81 % 4.1 °C 1006.0 hPa 0.0 Km/h NW 0.0 mm  7.1 °C 7.9 °C
Oppeano (VR) 26/02/17 22.45 5.7 °C 80 % 2.5 °C 1015.9 hPa 0.0 Km/h --- 0.0 mm  -0.3 °C 14.3 °C
Oristano (OR) 28/02/17 03.52 7.2 °C 83 % 4.5 °C 1014.2 hPa 0.0 Km/h ESE 0.0 mm  5.8 °C 7.2 °C
Orosei (NU) 28/02/17 03.56 7.8 °C 79 % 4.4 °C 1014.0 hPa 0.0 Km/h SSE 0.0 mm  7.6 °C 9.0 °C
Ortonovo (SP) 28/02/17 03.50 10.1 °C 83 % 7.3 °C 1011.1 hPa 20.3 Km/h SSE 0.0 mm  10.1 °C 10.8 °C
Orvieto (TR) 27/02/17 23.31 6.9 °C 86 % 4.7 °C 1014.3 hPa 0.2 Km/h SSW 0.0 mm  1.4 °C 17.2 °C
Ostana (CN) 28/02/17 03.50 -3.2 °C 89 % -4.8 °C 1006.7 hPa 1.6 Km/h WNW 0.0 mm  -3.2 °C -1.6 °C
Ovaro loc. Liariis (UD) 28/02/17 03.50 2.7 °C 81 % -0.3 °C 1012.0 hPa 0.0 Km/h --- 0.0 mm  2.2 °C 2.7 °C
Pace del Mela (ME) 27/02/17 21.08 12.5 °C 88 % 10.6 °C 1018.5 hPa 2.5 Km/h SE 0.0 mm  11.9 °C 15.9 °C
Padergnone (TN) 28/02/17 03.45 6.7 °C 88 % 4.9 °C 1009.8 hPa 0.0 Km/h S 0.2 mm  6.7 °C 7.6 °C
Parella (TO) 28/02/17 03.47 6.2 °C 84 % 3.7 °C 1006.3 hPa 0.0 Km/h NNE 0.0 mm  6.0 °C 6.8 °C
Pastrengo (VR) 28/02/17 03.43 7.8 °C 74 % 3.4 °C 1009.4 hPa 0.0 Km/h N 0.0 mm  7.8 °C 8.8 °C
Pastrengo Cornè (VR) 28/02/17 03.55 7.6 °C 81 % 4.5 °C 1008.4 hPa 0.0 Km/h NNE 0.0 mm  7.6 °C 8.6 °C
Pecetto Torinese (TO) 28/02/17 03.47 5.3 °C 88 % 3.4 °C 1002.9 hPa 0.0 Km/h N 0.0 mm  4.9 °C 5.3 °C
Pedara (CT) 28/02/17 03.50 9.1 °C 92 % 7.9 °C 1014.5 hPa 5.4 Km/h WSW 0.0 mm  8.1 °C 10.4 °C
Pedemonte (VR) 28/02/17 03.55 8.2 °C 78 % 4.6 °C 1009.1 hPa 0.0 Km/h N 0.0 mm  8.0 °C 8.5 °C
Perugia San Mariano (PG) 28/02/17 03.40 6.9 °C 80 % 3.7 °C 1013.0 hPa 0.0 Km/h WSW 0.0 mm  5.9 °C 6.9 °C
Pila Valsesia (VC) 28/02/17 03.55 3.3 °C 80 % 0.2 °C 1005.8 hPa 0.0 Km/h SSE 0.0 mm  3.3 °C 4.9 °C
Piovà Massaia (AT) 28/02/17 03.50 5.4 °C 90 % 3.9 °C 1007.3 hPa 0.0 Km/h NNE 0.0 mm  5.4 °C 5.8 °C
Pisa zona I Passi (PI) 28/02/17 03.50 10.2 °C 80 % 6.9 °C 1012.3 hPa 0.0 Km/h E 0.0 mm  10.2 °C 10.8 °C
Pomezia (RM) 28/02/17 03.50 8.6 °C 87 % 6.6 °C 1014.9 hPa 0.0 Km/h SE 0.0 mm  8.6 °C 9.8 °C
Ponte San Nicolò (PD) 28/02/17 03.44 8.3 °C 92 % 7.1 °C 1010.0 hPa 0.0 Km/h ENE 0.0 mm  8.3 °C 8.6 °C
Ponte San Pellegrino (MO) 28/02/17 03.50 6.8 °C 94 % 5.9 °C 1000.0 hPa 6.1 Km/h NE 0.0 mm  6.7 °C 8.1 °C
Pordenone (PN) 28/02/17 03.50 8.0 °C 80 % 4.8 °C 1011.4 hPa 0.0 Km/h --- 0.0 mm  7.9 °C 8.3 °C
Pozzolo Formigaro (AL) 28/02/17 03.56 5.3 °C 99 % 5.2 °C 1008.6 hPa 2.2 Km/h NNE 0.2 mm  5.3 °C 5.8 °C
Pray (BI) 28/02/17 03.50 4.8 °C 86 % 2.7 °C 1008.0 hPa 0.0 Km/h --- 0.0 mm  4.8 °C 5.5 °C
Quinto di Valpantena (VR) 28/02/17 03.50 7.9 °C 87 % 5.9 °C 1009.7 hPa 0.0 Km/h --- 0.0 mm  7.9 °C 8.7 °C
Reggello (FI) 28/02/17 03.50 8.2 °C 85 % 5.8 °C 1015.6 hPa 14.5 Km/h O 0.0 mm  8.1 °C 9.0 °C
Riccione (RN) 28/02/17 02.50 9.4 °C 75 % 5.2 °C 1013.1 hPa 6.4 Km/h SSW 0.0 mm  5.0 °C 9.4 °C
Rifugio Bocca di Selva (VR) 28/02/17 03.50 0.2 °C 99 % 0.0 °C 1008.8 hPa 22.5 Km/h SSW 0.0 mm  -0.3 °C 0.3 °C
Rifugio Fiori del Baldo (VR) 27/02/17 23.09 -1.6 °C 100 % -1.7 °C 1010.2 hPa 0.0 Km/h N 0.2 mm  -3.5 °C 1.7 °C
Rifugio Primaneve (VR) 28/02/17 03.45 -1.0 °C 99 % -1.1 °C 1010.4 hPa 0.0 Km/h N 0.0 mm  -1.6 °C -0.6 °C
Rimini (RN) 28/02/17 03.50 9.6 °C 70 % 4.4 °C 1011.9 hPa 11.3 Km/h SSW 0.0 mm  5.3 °C 9.9 °C
Rimini Zona Palas (RN) 28/02/17 03.47 10.9 °C 66 % 5.0 °C 1012.1 hPa 11.3 Km/h SW 0.0 mm  5.7 °C 10.9 °C
Rivalba (TO) 28/02/17 03.50 5.6 °C 85 % 3.3 °C 1004.5 hPa 0.0 Km/h NW 0.0 mm  4.7 °C 6.0 °C
Rivalta sul Mincio (MN) 28/02/17 03.56 8.1 °C 84 % 5.5 °C 1009.7 hPa 7.2 Km/h E 0.0 mm  7.6 °C 8.9 °C
Roma Prato della Signora (RM) 28/02/17 00.37 7.3 °C 75 % 3.2 °C 1016.8 hPa 0.0 Km/h NW 0.0 mm  7.1 °C 7.3 °C
Romano d'Ezzelino Fellette (VI) 28/02/17 03.50 7.1 °C 68 % 1.6 °C 1014.1 hPa 0.0 Km/h NE 0.0 mm  7.1 °C 7.9 °C
Ronciglione Centro (VT) 28/02/17 03.50 6.7 °C 88 % 4.9 °C 1014.0 hPa 0.0 Km/h WSW 0.0 mm  6.5 °C 7.4 °C
Ronciglione - Ponte Cuzzoli (VT) 28/02/17 03.55 4.9 °C 96 % 4.4 °C 1015.3 hPa 1.6 Km/h WNW 0.0 mm  4.8 °C 6.3 °C
Rosolina (RO) 28/02/17 03.40 7.2 °C 95 % 6.4 °C 1011.1 hPa 1.6 Km/h NE 0.0 mm  7.2 °C 7.8 °C
S. Giovanni Ilarione2 (VR) 28/02/17 03.50 7.4 °C 86 % 5.2 °C 1009.8 hPa 0.0 Km/h WNW 0.0 mm  7.2 °C 8.1 °C
S. Giovanni Lupatoto (VR) 28/02/17 03.50 8.1 °C 82 % 5.2 °C 1010.0 hPa 0.0 Km/h --- 0.0 mm  8.1 °C 8.8 °C
S. Giovanni Rotondo (FG) 28/02/17 03.55 8.6 °C 77 % 4.8 °C 1014.0 hPa 0.0 Km/h SSW 0.0 mm  8.6 °C 10.1 °C
S. Lorenzo di Vittorio Veneto (TV) 28/02/17 03.50 5.9 °C 78 % 2.4 °C 1011.2 hPa 0.0 Km/h N 0.0 mm  5.9 °C 6.9 °C
S. Lorenzo Nuovo (VT) 28/02/17 03.51 5.8 °C 82 % 3.0 °C 1012.3 hPa 8.0 Km/h S 0.0 mm  5.8 °C 6.2 °C
S. Maria Maddalena (RO) 28/02/17 03.45 6.5 °C 93 % 5.6 °C 1008.9 hPa 1.7 Km/h ENE 0.0 mm  6.5 °C 8.1 °C
S. Martino Lupari (PD) 21/02/17 19.30 6.4 °C 94 % 5.5 °C 1019.3 hPa 0.0 Km/h --- 0.2 mm  3.4 °C 7.6 °C
S. Rocco di Villabalzana (VI) 28/02/17 03.53 6.8 °C 86 % 4.4 °C 1010.1 hPa 3.2 Km/h NE 0.0 mm  6.8 °C 7.4 °C
Sacile (PN) 28/02/17 03.40 7.2 °C 80 % 4.0 °C 1010.4 hPa 1.6 Km/h NE 0.0 mm  7.1 °C 7.3 °C
Salcedo (VI) 28/02/17 03.50 5.3 °C 74 % 1.0 °C 1009.0 hPa 2.0 Km/h NNE 0.0 mm  5.3 °C 6.8 °C
San Benedetto del Tronto (AP) 28/02/17 03.55 7.8 °C 85 % 5.4 °C 1011.0 hPa 0.0 Km/h W 0.0 mm  7.7 °C 8.5 °C
San Cataldo (CL) 28/02/17 03.51 9.7 °C 94 % 8.8 °C 1014.3 hPa 0.0 Km/h N 0.0 mm  9.5 °C 9.8 °C
San Giovanni la Punta Trappeto (CT) 28/02/17 03.55 10.6 °C 91 % 9.2 °C 1018.1 hPa 3.2 Km/h NW 0.0 mm  10.6 °C 11.8 °C
San Nazario (VI) 28/02/17 03.36 6.2 °C 85 % 3.9 °C 1009.7 hPa 1.1 Km/h W 0.3 mm  6.2 °C 6.8 °C
San Pietro in Cariano (VR) 28/02/17 03.49 8.0 °C 80 % 4.8 °C 1009.5 hPa 0.3 Km/h E 0.0 mm  8.0 °C 9.2 °C
San Potito Lugo (RA) 25/02/17 09.45 11.5 °C 62 % 4.5 °C 1028.9 hPa 1.1 Km/h NNE 60.9 mm  4.9 °C 11.5 °C
San Salvo3 (CH) 28/02/17 03.50 7.6 °C 94 % 6.7 °C 1010.9 hPa 0.0 Km/h SE 0.2 mm  6.7 °C 8.6 °C
San Vito (CA) 28/02/17 03.51 7.5 °C 80 % 4.3 °C 1010.1 hPa 0.6 Km/h NNE 0.0 mm  7.5 °C 9.9 °C
Santarcangelo di Romagna (RN) 28/02/17 03.51 10.8 °C 65 % 4.5 °C 1011.1 hPa 11.1 Km/h NNE 0.0 mm  5.9 °C 11.6 °C
Savelli (KR) 28/02/17 03.50 9.6 °C 68 % 4.0 °C 1016.8 hPa 26.3 Km/h W 0.0 mm  8.7 °C 10.6 °C
Schio (VI) 28/02/17 03.45 7.1 °C 83 % 4.4 °C 1011.7 hPa 0.0 Km/h --- 0.8 mm  7.1 °C 8.0 °C
Schio Monte Magré (VI) 28/02/17 03.50 5.7 °C 87 % 3.7 °C 0.0 hPa 0.0 Km/h WNW 0.2 mm  5.7 °C 6.9 °C
Selva di Cadore Santa Fosca (BL) 28/02/17 03.50 -1.6 °C 83 % -4.1 °C 1006.3 hPa 0.0 Km/h WSW 0.0 mm  -1.6 °C -0.9 °C
Seremange Erzange (Moselle) 28/02/17 03.50 4.4 °C 90 % 2.9 °C 995.9 hPa 9.6 Km/h SW 0.7 mm  4.6 °C 5.7 °C
Sinnai (CA) 28/02/17 00.00 10.0 °C 72 % 5.2 °C 1017.2 hPa 0.0 Km/h --- 0.0 mm  10.0 °C 10.1 °C
Soave Borgo Bassano (VR) 28/02/17 03.55 9.3 °C 71 % 4.3 °C 1009.9 hPa 8.0 Km/h NE 0.0 mm  8.9 °C 10.1 °C
Soriso (NO) 28/02/17 03.50 5.6 °C 84 % 3.1 °C 1008.8 hPa 0.0 Km/h --- 0.0 mm  5.5 °C 6.0 °C
Spoltore (PE) 28/02/17 03.43 7.9 °C 98 % 7.6 °C 1014.1 hPa 6.4 Km/h NNW 0.0 mm  6.8 °C 8.0 °C
Staranzano (GO) 28/02/17 03.40 8.3 °C 89 % 6.6 °C 1011.7 hPa 0.0 Km/h S 0.0 mm  7.8 °C 8.3 °C
Stiore - Monteveglio (BO) 28/02/17 03.50 11.0 °C 69 % 5.5 °C 1006.4 hPa 11.3 Km/h S 0.0 mm  9.1 °C 11.6 °C
Taio Mollaro (TN) 28/02/17 03.50 3.6 °C 86 % 1.5 °C 1009.2 hPa 0.0 Km/h NNE 0.0 mm  3.6 °C 4.3 °C
Taranto (TA) 28/02/17 03.55 10.9 °C 92 % 9.6 °C 1012.0 hPa 3.0 Km/h SSE 0.0 mm  10.8 °C 12.4 °C
Todi (PG) 28/02/17 03.55 6.9 °C 81 % 3.9 °C 1013.9 hPa 0.0 Km/h N 0.0 mm  6.2 °C 6.9 °C
Tombolo (PD) 28/02/17 03.51 6.9 °C 85 % 4.6 °C 1011.2 hPa 6.7 Km/h N 0.0 mm  6.9 °C 7.9 °C
Torino Regio Parco (TO) 28/02/17 03.50 5.5 °C 89 % 3.8 °C 1010.1 hPa 2.6 Km/h E 0.0 mm  5.2 °C 6.0 °C
Torre Annunziata (NA) 28/02/17 03.55 11.8 °C 81 % 8.6 °C 1016.5 hPa 0.0 Km/h NNW 0.0 mm  11.2 °C 12.3 °C
Torremaggiore (FG) 28/02/17 03.50 11.8 °C 56 % 3.3 °C 1012.6 hPa 0.0 Km/h SSE 0.0 mm  10.6 °C 13.1 °C
Torri (FI) 28/02/17 03.45 6.7 °C 88 % 4.9 °C 1011.9 hPa 8.0 Km/h SSE 0.0 mm  6.2 °C 7.6 °C
Tortoreto (TE) 28/02/17 03.50 8.4 °C 88 % 6.6 °C 1012.5 hPa 1.6 Km/h NE 0.3 mm  7.7 °C 9.3 °C
Trambileno (TN) 28/02/17 03.30 4.1 °C 92 % 2.8 °C 997.2 hPa 0.0 Km/h N 0.8 mm  3.9 °C 4.3 °C
Tregnago (VR) 28/02/17 03.40 6.7 °C 85 % 4.3 °C 1009.4 hPa 4.8 Km/h NW 0.0 mm  6.6 °C 7.3 °C
Tregnago Loc. Centro (VR) 28/02/17 03.55 6.7 °C 86 % 4.5 °C 1003.7 hPa 0.0 Km/h WSW 0.8 mm  6.0 °C 7.2 °C
Trento (TN) 28/02/17 03.51 7.4 °C 79 % 4.0 °C 1007.5 hPa 4.8 Km/h NNW 0.0 mm  7.4 °C 8.7 °C
Treviso (TV) 28/02/17 03.50 6.7 °C 82 % 3.8 °C 1010.8 hPa 0.0 Km/h NNO 0.0 mm  6.7 °C 7.6 °C
Tuscania (VT) 27/02/17 20.30 8.4 °C 80 % 5.2 °C 1017.7 hPa 0.0 Km/h SW 0.0 mm  5.7 °C 15.0 °C
Val Lastaro (VI) 28/02/17 03.39 1.3 °C 96 % 0.6 °C 1012.2 hPa 0.0 Km/h WSW 1.4 mm  0.3 °C 1.9 °C
Valdobbiadene San Pietro di Barbozza (TV) 28/02/17 03.55 5.7 °C 83 % 3.0 °C 1009.8 hPa 0.0 Km/h N 0.2 mm  5.7 °C 7.1 °C
Valentano (VT) 28/02/17 03.50 6.8 °C 91 % 5.6 °C 1013.2 hPa 9.6 Km/h N 0.0 mm  6.7 °C 7.4 °C
Valenza (AL) 28/02/17 03.42 5.8 °C 95 % 5.1 °C 1008.0 hPa 0.0 Km/h NW 0.0 mm  5.8 °C 6.3 °C
Valli del Pasubio loc. Gisbenti (VI) 28/02/17 03.50 4.8 °C 51 % -4.5 °C 966.0 hPa 0.0 Km/h --- 0.0 mm  4.8 °C 5.5 °C
Varese Ligure (SP) 28/02/17 03.50 9.3 °C 56 % 1.0 °C 1013.0 hPa 7.0 Km/h SO 3.0 mm  8.8 °C 11.2 °C
Vasto (CH) 28/02/17 02.05 7.5 °C 40 % -5.2 °C 1011.9 hPa 0.0 Km/h --- 0.0 mm  7.2 °C 7.9 °C
Vattaro fraz. Pian dei Pradi (TN) 28/02/17 03.51 3.3 °C 89 % 1.6 °C 1009.6 hPa 8.7 Km/h SSW 1.1 mm  3.1 °C 3.7 °C
Verona Bgo Venezia (iz3sly) (VR) 28/02/17 00.20 10.6 °C 57 % 2.4 °C 1016.8 hPa 0.0 Km/h WSW 0.0 mm  10.6 °C 10.6 °C
Vestenanova (VR) 28/02/17 03.50 4.8 °C 77 % 1.1 °C 1018.3 hPa 2.5 Km/h NE 0.3 mm  4.8 °C 5.9 °C
Vicenza Campedello (VI) 28/02/17 03.54 7.4 °C 88 % 5.6 °C 1011.1 hPa 0.0 Km/h W 0.0 mm  7.1 °C 7.8 °C
Vicenza Moracchino (VI) 28/02/17 03.51 7.2 °C 86 % 5.0 °C 1009.3 hPa 8.0 Km/h N 0.0 mm  7.2 °C 8.2 °C
Vicenza Pecori Giraldi (VI) 28/02/17 03.51 8.0 °C 90 % 6.5 °C 998.2 hPa 3.5 Km/h NE 0.0 mm  8.0 °C 8.8 °C
Vicenza S. Lazzaro (VI) 28/02/17 03.51 7.8 °C 81 % 5.0 °C 1009.6 hPa 5.0 Km/h N 0.0 mm  7.8 °C 8.6 °C
Vicenza San Gaetano (VI) 27/02/17 22.39 9.6 °C 75 % 5.4 °C 1013.8 hPa 0.0 Km/h NE 0.0 mm  3.7 °C 15.4 °C
Vidor (TV) 28/02/17 03.56 6.3 °C 77 % 2.6 °C 1009.4 hPa 3.9 Km/h ENE 0.0 mm  6.3 °C 6.8 °C
Vieste (FG) 28/02/17 03.51 12.6 °C 72 % 7.6 °C 1013.8 hPa 0.6 Km/h SSW 0.0 mm  11.4 °C 14.1 °C
Vigasio (VR) 28/02/17 03.50 8.2 °C 85 % 5.8 °C 1008.1 hPa 3.2 Km/h N 0.0 mm  8.2 °C 9.3 °C
Vigevano (PV) 23/02/17 03.07 3.6 °C 99 % 3.5 °C 993.3 hPa 0.0 Km/h N 0.0 mm  3.3 °C 4.4 °C
Viozene Toria (CN) 28/02/17 03.50 4.8 °C 74 % 0.6 °C 1005.7 hPa 7.0 Km/h WSW 1.5 mm  3.1 °C 5.2 °C
Viterbo Santa Barbara (VT) 27/02/17 20.46 7.7 °C 73 % 3.2 °C 1016.5 hPa 8.0 Km/h SW 0.0 mm  5.7 °C 15.1 °C
Vitorchiano Pallone (VT) 27/02/17 18.50 9.0 °C 71 % 4.0 °C 1015.4 hPa 1.6 Km/h N 0.0 mm  5.7 °C 16.3 °C
Vittorio Veneto (TV) 28/02/17 00.28 7.3 °C 74 % 2.9 °C 1013.1 hPa 0.0 Km/h W 0.0 mm  7.3 °C 7.3 °C
Vittorio Veneto Parco Fenderl (TV) 28/02/17 00.20 6.6 °C 86 % 4.4 °C 1013.8 hPa 0.0 Km/h NNW 0.0 mm  6.5 °C 6.7 °C
Volpago del Montello (TV) 28/02/17 03.45 6.5 °C 84 % 4.0 °C 1010.3 hPa 0.0 Km/h --- 0.0 mm  6.5 °C 6.9 °C
 
(*) = Precipitazioni nelle ultime 24h.
Dati non aggiornati nell'ultima ora.
   
In collaborazione con: